sensor_id;sensor_type;location;lat;lon;timestamp;P1;durP1;ratioP1;P2;durP2;ratioP2
22814;SDS011;11574;51.058;13.712;2023-03-13T00:00:59;15.93;;;3.40;;
22814;SDS011;11574;51.058;13.712;2023-03-13T00:06:02;21.87;;;3.20;;
22814;SDS011;11574;51.058;13.712;2023-03-13T00:11:07;16.50;;;3.30;;
22814;SDS011;11574;51.058;13.712;2023-03-13T00:16:10;13.40;;;2.90;;
22814;SDS011;11574;51.058;13.712;2023-03-13T00:21:13;14.73;;;2.93;;
22814;SDS011;11574;51.058;13.712;2023-03-13T00:26:17;15.57;;;3.47;;
22814;SDS011;11574;51.058;13.712;2023-03-13T00:31:20;14.73;;;3.27;;
22814;SDS011;11574;51.058;13.712;2023-03-13T00:36:25;17.93;;;3.57;;
22814;SDS011;11574;51.058;13.712;2023-03-13T00:41:29;13.47;;;3.77;;
22814;SDS011;11574;51.058;13.712;2023-03-13T00:46:32;12.07;;;2.80;;
22814;SDS011;11574;51.058;13.712;2023-03-13T00:51:35;17.60;;;2.83;;
22814;SDS011;11574;51.058;13.712;2023-03-13T00:56:39;16.03;;;3.10;;
22814;SDS011;11574;51.058;13.712;2023-03-13T01:01:41;10.93;;;2.70;;
22814;SDS011;11574;51.058;13.712;2023-03-13T01:06:44;14.57;;;3.60;;
22814;SDS011;11574;51.058;13.712;2023-03-13T01:11:48;16.53;;;3.67;;
22814;SDS011;11574;51.058;13.712;2023-03-13T01:16:50;17.27;;;3.30;;
22814;SDS011;11574;51.058;13.712;2023-03-13T01:21:53;13.13;;;2.73;;
22814;SDS011;11574;51.058;13.712;2023-03-13T01:26:56;17.50;;;3.33;;
22814;SDS011;11574;51.058;13.712;2023-03-13T01:31:59;18.60;;;3.10;;
22814;SDS011;11574;51.058;13.712;2023-03-13T01:37:01;13.20;;;3.17;;
22814;SDS011;11574;51.058;13.712;2023-03-13T01:42:07;12.73;;;2.97;;
22814;SDS011;11574;51.058;13.712;2023-03-13T01:47:09;20.33;;;3.13;;
22814;SDS011;11574;51.058;13.712;2023-03-13T01:52:14;18.80;;;4.07;;
22814;SDS011;11574;51.058;13.712;2023-03-13T01:57:20;16.20;;;3.57;;
22814;SDS011;11574;51.058;13.712;2023-03-13T02:02:25;18.23;;;2.50;;
22814;SDS011;11574;51.058;13.712;2023-03-13T02:07:28;18.10;;;3.23;;
22814;SDS011;11574;51.058;13.712;2023-03-13T02:12:34;19.70;;;3.27;;
22814;SDS011;11574;51.058;13.712;2023-03-13T02:17:39;18.97;;;3.00;;
22814;SDS011;11574;51.058;13.712;2023-03-13T02:22:43;17.73;;;2.90;;
22814;SDS011;11574;51.058;13.712;2023-03-13T02:27:50;16.70;;;3.37;;
22814;SDS011;11574;51.058;13.712;2023-03-13T02:32:53;17.70;;;3.37;;
22814;SDS011;11574;51.058;13.712;2023-03-13T02:37:58;16.37;;;2.90;;
22814;SDS011;11574;51.058;13.712;2023-03-13T02:43:04;21.30;;;3.80;;
22814;SDS011;11574;51.058;13.712;2023-03-13T02:48:07;19.73;;;3.20;;
22814;SDS011;11574;51.058;13.712;2023-03-13T02:53:09;18.43;;;2.97;;
22814;SDS011;11574;51.058;13.712;2023-03-13T02:58:14;16.00;;;3.40;;
22814;SDS011;11574;51.058;13.712;2023-03-13T03:03:16;16.83;;;2.63;;
22814;SDS011;11574;51.058;13.712;2023-03-13T03:08:20;16.87;;;3.40;;
22814;SDS011;11574;51.058;13.712;2023-03-13T03:13:27;18.20;;;3.07;;
22814;SDS011;11574;51.058;13.712;2023-03-13T03:18:29;15.47;;;2.63;;
22814;SDS011;11574;51.058;13.712;2023-03-13T03:23:32;26.63;;;3.83;;
22814;SDS011;11574;51.058;13.712;2023-03-13T03:28:36;18.97;;;3.73;;
22814;SDS011;11574;51.058;13.712;2023-03-13T03:33:38;24.10;;;3.43;;
22814;SDS011;11574;51.058;13.712;2023-03-13T03:38:41;13.93;;;3.63;;
22814;SDS011;11574;51.058;13.712;2023-03-13T03:43:49;13.13;;;2.60;;
22814;SDS011;11574;51.058;13.712;2023-03-13T03:48:54;18.80;;;3.67;;
22814;SDS011;11574;51.058;13.712;2023-03-13T03:53:56;21.60;;;3.27;;
22814;SDS011;11574;51.058;13.712;2023-03-13T03:59:00;11.30;;;2.47;;
22814;SDS011;11574;51.058;13.712;2023-03-13T04:04:02;14.80;;;3.47;;
22814;SDS011;11574;51.058;13.712;2023-03-13T04:09:04;24.67;;;3.50;;
22814;SDS011;11574;51.058;13.712;2023-03-13T04:14:08;12.53;;;2.77;;
22814;SDS011;11574;51.058;13.712;2023-03-13T04:19:10;17.57;;;3.00;;
22814;SDS011;11574;51.058;13.712;2023-03-13T04:24:12;19.90;;;2.93;;
22814;SDS011;11574;51.058;13.712;2023-03-13T04:29:17;20.17;;;2.97;;
22814;SDS011;11574;51.058;13.712;2023-03-13T04:34:19;19.33;;;2.93;;
22814;SDS011;11574;51.058;13.712;2023-03-13T04:39:21;21.53;;;3.07;;
22814;SDS011;11574;51.058;13.712;2023-03-13T04:44:25;17.53;;;3.07;;
22814;SDS011;11574;51.058;13.712;2023-03-13T04:49:27;18.50;;;3.17;;
22814;SDS011;11574;51.058;13.712;2023-03-13T04:54:30;16.80;;;3.30;;
22814;SDS011;11574;51.058;13.712;2023-03-13T04:59:37;14.97;;;2.80;;
22814;SDS011;11574;51.058;13.712;2023-03-13T05:04:40;15.03;;;2.60;;
22814;SDS011;11574;51.058;13.712;2023-03-13T05:09:42;18.63;;;3.13;;
22814;SDS011;11574;51.058;13.712;2023-03-13T05:14:45;18.23;;;3.73;;
22814;SDS011;11574;51.058;13.712;2023-03-13T05:19:49;16.53;;;3.13;;
22814;SDS011;11574;51.058;13.712;2023-03-13T05:24:51;19.13;;;2.73;;
22814;SDS011;11574;51.058;13.712;2023-03-13T05:29:55;14.43;;;2.83;;
22814;SDS011;11574;51.058;13.712;2023-03-13T05:34:57;15.73;;;2.87;;
22814;SDS011;11574;51.058;13.712;2023-03-13T05:39:59;12.53;;;2.83;;
22814;SDS011;11574;51.058;13.712;2023-03-13T05:45:03;12.90;;;3.07;;
22814;SDS011;11574;51.058;13.712;2023-03-13T05:50:05;12.23;;;2.60;;
22814;SDS011;11574;51.058;13.712;2023-03-13T05:55:09;13.97;;;3.43;;
22814;SDS011;11574;51.058;13.712;2023-03-13T06:00:14;16.77;;;3.10;;
22814;SDS011;11574;51.058;13.712;2023-03-13T06:05:16;13.03;;;2.60;;
22814;SDS011;11574;51.058;13.712;2023-03-13T06:10:18;11.37;;;2.50;;
22814;SDS011;11574;51.058;13.712;2023-03-13T06:15:22;15.87;;;2.67;;
22814;SDS011;11574;51.058;13.712;2023-03-13T06:20:24;14.30;;;2.97;;
22814;SDS011;11574;51.058;13.712;2023-03-13T06:25:26;16.73;;;3.20;;
22814;SDS011;11574;51.058;13.712;2023-03-13T06:30:32;8.63;;;2.40;;
22814;SDS011;11574;51.058;13.712;2023-03-13T06:35:34;9.53;;;2.53;;
22814;SDS011;11574;51.058;13.712;2023-03-13T06:40:37;14.20;;;2.43;;
22814;SDS011;11574;51.058;13.712;2023-03-13T06:45:40;11.50;;;2.60;;
22814;SDS011;11574;51.058;13.712;2023-03-13T06:50:42;14.53;;;4.17;;
22814;SDS011;11574;51.058;13.712;2023-03-13T06:55:45;13.70;;;3.40;;
22814;SDS011;11574;51.058;13.712;2023-03-13T07:00:49;15.47;;;4.37;;
22814;SDS011;11574;51.058;13.712;2023-03-13T07:05:55;23.13;;;4.13;;
22814;SDS011;11574;51.058;13.712;2023-03-13T07:10:58;12.20;;;2.37;;
22814;SDS011;11574;51.058;13.712;2023-03-13T07:16:03;8.43;;;1.90;;
22814;SDS011;11574;51.058;13.712;2023-03-13T07:21:05;13.10;;;1.97;;
22814;SDS011;11574;51.058;13.712;2023-03-13T07:26:11;9.57;;;1.80;;
22814;SDS011;11574;51.058;13.712;2023-03-13T07:31:15;7.87;;;2.20;;
22814;SDS011;11574;51.058;13.712;2023-03-13T07:36:18;8.87;;;1.83;;
22814;SDS011;11574;51.058;13.712;2023-03-13T07:41:21;9.97;;;1.93;;
22814;SDS011;11574;51.058;13.712;2023-03-13T07:46:25;8.03;;;1.90;;
22814;SDS011;11574;51.058;13.712;2023-03-13T07:51:27;6.07;;;1.70;;
22814;SDS011;11574;51.058;13.712;2023-03-13T07:56:29;9.23;;;1.83;;
22814;SDS011;11574;51.058;13.712;2023-03-13T08:01:35;9.37;;;2.30;;
22814;SDS011;11574;51.058;13.712;2023-03-13T08:06:43;10.93;;;2.40;;
22814;SDS011;11574;51.058;13.712;2023-03-13T08:11:46;9.00;;;1.80;;
22814;SDS011;11574;51.058;13.712;2023-03-13T08:16:49;8.13;;;1.80;;
22814;SDS011;11574;51.058;13.712;2023-03-13T08:21:51;9.63;;;2.33;;
22814;SDS011;11574;51.058;13.712;2023-03-13T08:26:53;8.63;;;2.20;;
22814;SDS011;11574;51.058;13.712;2023-03-13T08:32:06;9.60;;;2.00;;
22814;SDS011;11574;51.058;13.712;2023-03-13T08:37:08;10.17;;;2.27;;
22814;SDS011;11574;51.058;13.712;2023-03-13T08:42:11;11.07;;;2.30;;
22814;SDS011;11574;51.058;13.712;2023-03-13T08:47:15;9.27;;;2.30;;
22814;SDS011;11574;51.058;13.712;2023-03-13T08:52:18;8.47;;;1.77;;
22814;SDS011;11574;51.058;13.712;2023-03-13T08:57:20;6.03;;;1.70;;
22814;SDS011;11574;51.058;13.712;2023-03-13T09:02:24;6.70;;;1.93;;
22814;SDS011;11574;51.058;13.712;2023-03-13T09:07:26;6.53;;;2.00;;
22814;SDS011;11574;51.058;13.712;2023-03-13T09:12:29;4.50;;;1.40;;
22814;SDS011;11574;51.058;13.712;2023-03-13T09:17:32;4.50;;;1.57;;
22814;SDS011;11574;51.058;13.712;2023-03-13T09:22:34;4.83;;;1.50;;
22814;SDS011;11574;51.058;13.712;2023-03-13T09:27:37;6.77;;;1.60;;
22814;SDS011;11574;51.058;13.712;2023-03-13T09:32:40;3.23;;;1.13;;
22814;SDS011;11574;51.058;13.712;2023-03-13T09:37:42;3.40;;;1.30;;
22814;SDS011;11574;51.058;13.712;2023-03-13T09:42:45;5.10;;;1.20;;
22814;SDS011;11574;51.058;13.712;2023-03-13T09:47:51;2.00;;;0.90;;
22814;SDS011;11574;51.058;13.712;2023-03-13T09:52:54;5.10;;;1.20;;
22814;SDS011;11574;51.058;13.712;2023-03-13T09:57:59;2.67;;;1.33;;
22814;SDS011;11574;51.058;13.712;2023-03-13T10:03:06;2.80;;;1.30;;
22814;SDS011;11574;51.058;13.712;2023-03-13T10:08:14;3.47;;;0.90;;
22814;SDS011;11574;51.058;13.712;2023-03-13T10:13:18;2.77;;;0.90;;
22814;SDS011;11574;51.058;13.712;2023-03-13T10:18:26;3.43;;;1.17;;
22814;SDS011;11574;51.058;13.712;2023-03-13T10:23:32;1.87;;;0.90;;
22814;SDS011;11574;51.058;13.712;2023-03-13T10:28:36;1.63;;;0.90;;
22814;SDS011;11574;51.058;13.712;2023-03-13T10:33:39;1.93;;;0.60;;
22814;SDS011;11574;51.058;13.712;2023-03-13T10:38:45;1.53;;;0.60;;
22814;SDS011;11574;51.058;13.712;2023-03-13T10:43:48;1.67;;;0.80;;
22814;SDS011;11574;51.058;13.712;2023-03-13T10:48:54;2.63;;;0.80;;
22814;SDS011;11574;51.058;13.712;2023-03-13T10:53:56;1.90;;;0.50;;
22814;SDS011;11574;51.058;13.712;2023-03-13T10:58:58;2.07;;;0.83;;
22814;SDS011;11574;51.058;13.712;2023-03-13T11:04:17;2.87;;;0.80;;
22814;SDS011;11574;51.058;13.712;2023-03-13T11:09:20;1.47;;;0.70;;
22814;SDS011;11574;51.058;13.712;2023-03-13T11:14:23;3.43;;;1.00;;
22814;SDS011;11574;51.058;13.712;2023-03-13T11:24:41;1.60;;;0.80;;
22814;SDS011;11574;51.058;13.712;2023-03-13T11:29:46;1.77;;;0.80;;
22814;SDS011;11574;51.058;13.712;2023-03-13T11:34:51;0.90;;;0.60;;
22814;SDS011;11574;51.058;13.712;2023-03-13T11:39:59;1.70;;;0.73;;
22814;SDS011;11574;51.058;13.712;2023-03-13T11:45:05;1.40;;;0.60;;
22814;SDS011;11574;51.058;13.712;2023-03-13T11:50:14;1.60;;;0.70;;
22814;SDS011;11574;51.058;13.712;2023-03-13T11:55:31;2.23;;;0.50;;
22814;SDS011;11574;51.058;13.712;2023-03-13T12:00:35;0.93;;;0.70;;
22814;SDS011;11574;51.058;13.712;2023-03-13T12:05:40;1.00;;;0.80;;
22814;SDS011;11574;51.058;13.712;2023-03-13T12:10:47;2.43;;;0.60;;
22814;SDS011;11574;51.058;13.712;2023-03-13T12:15:53;2.30;;;0.70;;
22814;SDS011;11574;51.058;13.712;2023-03-13T12:20:59;2.50;;;0.90;;
22814;SDS011;11574;51.058;13.712;2023-03-13T12:26:05;2.00;;;0.70;;
22814;SDS011;11574;51.058;13.712;2023-03-13T12:31:11;2.00;;;0.90;;
22814;SDS011;11574;51.058;13.712;2023-03-13T12:36:16;1.57;;;0.90;;
22814;SDS011;11574;51.058;13.712;2023-03-13T12:41:21;1.50;;;0.80;;
22814;SDS011;11574;51.058;13.712;2023-03-13T12:46:32;2.03;;;0.80;;
22814;SDS011;11574;51.058;13.712;2023-03-13T12:51:37;2.67;;;0.60;;
22814;SDS011;11574;51.058;13.712;2023-03-13T12:56:46;1.30;;;0.70;;
22814;SDS011;11574;51.058;13.712;2023-03-13T13:01:54;3.70;;;0.70;;
22814;SDS011;11574;51.058;13.712;2023-03-13T13:06:58;3.47;;;0.63;;
22814;SDS011;11574;51.058;13.712;2023-03-13T13:12:09;1.50;;;0.67;;
22814;SDS011;11574;51.058;13.712;2023-03-13T13:17:19;2.47;;;0.67;;
22814;SDS011;11574;51.058;13.712;2023-03-13T13:27:46;6.00;;;1.47;;
22814;SDS011;11574;51.058;13.712;2023-03-13T13:32:48;6.53;;;0.80;;
22814;SDS011;11574;51.058;13.712;2023-03-13T13:37:51;2.60;;;0.90;;
22814;SDS011;11574;51.058;13.712;2023-03-13T13:42:55;1.97;;;0.77;;
22814;SDS011;11574;51.058;13.712;2023-03-13T13:53:32;2.37;;;0.80;;
22814;SDS011;11574;51.058;13.712;2023-03-13T13:58:41;5.10;;;1.07;;
22814;SDS011;11574;51.058;13.712;2023-03-13T14:03:44;1.40;;;1.07;;
22814;SDS011;11574;51.058;13.712;2023-03-13T14:08:48;3.17;;;1.20;;
22814;SDS011;11574;51.058;13.712;2023-03-13T14:19:26;3.57;;;0.93;;
22814;SDS011;11574;51.058;13.712;2023-03-13T14:24:29;4.20;;;0.80;;
22814;SDS011;11574;51.058;13.712;2023-03-13T14:29:33;1.40;;;0.80;;
22814;SDS011;11574;51.058;13.712;2023-03-13T14:34:36;2.87;;;0.77;;
22814;SDS011;11574;51.058;13.712;2023-03-13T14:39:41;2.00;;;0.90;;
22814;SDS011;11574;51.058;13.712;2023-03-13T14:44:45;3.73;;;0.87;;
22814;SDS011;11574;51.058;13.712;2023-03-13T14:49:54;2.30;;;0.90;;
22814;SDS011;11574;51.058;13.712;2023-03-13T14:54:59;5.83;;;1.10;;
22814;SDS011;11574;51.058;13.712;2023-03-13T15:00:26;3.57;;;0.70;;
22814;SDS011;11574;51.058;13.712;2023-03-13T15:05:31;7.40;;;1.10;;
22814;SDS011;11574;51.058;13.712;2023-03-13T15:10:35;2.00;;;0.90;;
22814;SDS011;11574;51.058;13.712;2023-03-13T15:15:39;1.30;;;0.70;;
22814;SDS011;11574;51.058;13.712;2023-03-13T15:20:43;1.90;;;0.80;;
22814;SDS011;11574;51.058;13.712;2023-03-13T15:25:45;1.17;;;0.70;;
22814;SDS011;11574;51.058;13.712;2023-03-13T15:30:48;1.77;;;0.90;;
22814;SDS011;11574;51.058;13.712;2023-03-13T15:35:52;3.90;;;1.13;;
22814;SDS011;11574;51.058;13.712;2023-03-13T15:40:55;1.53;;;0.73;;
22814;SDS011;11574;51.058;13.712;2023-03-13T15:45:57;0.60;;;0.50;;
22814;SDS011;11574;51.058;13.712;2023-03-13T15:51:01;1.53;;;0.77;;
22814;SDS011;11574;51.058;13.712;2023-03-13T15:56:08;2.17;;;0.90;;
22814;SDS011;11574;51.058;13.712;2023-03-13T16:01:15;2.70;;;0.83;;
22814;SDS011;11574;51.058;13.712;2023-03-13T16:06:19;1.30;;;0.80;;
22814;SDS011;11574;51.058;13.712;2023-03-13T16:11:29;1.07;;;0.77;;
22814;SDS011;11574;51.058;13.712;2023-03-13T16:16:32;2.07;;;0.60;;
22814;SDS011;11574;51.058;13.712;2023-03-13T16:21:37;2.70;;;0.77;;
22814;SDS011;11574;51.058;13.712;2023-03-13T16:26:42;2.00;;;0.83;;
22814;SDS011;11574;51.058;13.712;2023-03-13T16:31:44;3.97;;;0.90;;
22814;SDS011;11574;51.058;13.712;2023-03-13T16:36:48;4.80;;;1.50;;
22814;SDS011;11574;51.058;13.712;2023-03-13T16:41:50;2.37;;;0.77;;
22814;SDS011;11574;51.058;13.712;2023-03-13T16:46:52;3.47;;;1.00;;
22814;SDS011;11574;51.058;13.712;2023-03-13T16:51:55;3.40;;;0.90;;
22814;SDS011;11574;51.058;13.712;2023-03-13T16:56:58;2.20;;;1.23;;
22814;SDS011;11574;51.058;13.712;2023-03-13T17:02:03;2.53;;;1.03;;
22814;SDS011;11574;51.058;13.712;2023-03-13T17:07:09;2.20;;;1.10;;
22814;SDS011;11574;51.058;13.712;2023-03-13T17:12:12;2.13;;;1.17;;
22814;SDS011;11574;51.058;13.712;2023-03-13T17:17:15;2.87;;;1.50;;
22814;SDS011;11574;51.058;13.712;2023-03-13T17:22:19;3.33;;;1.20;;
22814;SDS011;11574;51.058;13.712;2023-03-13T17:27:22;5.43;;;1.43;;
22814;SDS011;11574;51.058;13.712;2023-03-13T17:32:25;3.57;;;1.30;;
22814;SDS011;11574;51.058;13.712;2023-03-13T17:37:29;2.43;;;1.10;;
22814;SDS011;11574;51.058;13.712;2023-03-13T17:42:31;3.30;;;1.37;;
22814;SDS011;11574;51.058;13.712;2023-03-13T17:47:33;4.73;;;1.30;;
22814;SDS011;11574;51.058;13.712;2023-03-13T17:52:36;2.57;;;1.40;;
22814;SDS011;11574;51.058;13.712;2023-03-13T17:57:39;8.90;;;1.47;;
22814;SDS011;11574;51.058;13.712;2023-03-13T18:02:42;2.97;;;1.50;;
22814;SDS011;11574;51.058;13.712;2023-03-13T18:07:46;2.03;;;1.17;;
22814;SDS011;11574;51.058;13.712;2023-03-13T18:12:49;2.57;;;1.47;;
22814;SDS011;11574;51.058;13.712;2023-03-13T18:17:52;4.03;;;1.50;;
22814;SDS011;11574;51.058;13.712;2023-03-13T18:22:56;3.40;;;1.50;;
22814;SDS011;11574;51.058;13.712;2023-03-13T18:27:59;2.70;;;1.37;;
22814;SDS011;11574;51.058;13.712;2023-03-13T18:33:02;4.83;;;1.33;;
22814;SDS011;11574;51.058;13.712;2023-03-13T18:38:05;2.70;;;1.40;;
22814;SDS011;11574;51.058;13.712;2023-03-13T18:43:08;2.37;;;1.20;;
22814;SDS011;11574;51.058;13.712;2023-03-13T18:48:10;3.20;;;1.30;;
22814;SDS011;11574;51.058;13.712;2023-03-13T18:53:13;7.03;;;1.50;;
22814;SDS011;11574;51.058;13.712;2023-03-13T18:58:16;5.23;;;1.57;;
22814;SDS011;11574;51.058;13.712;2023-03-13T19:03:18;3.33;;;1.50;;
22814;SDS011;11574;51.058;13.712;2023-03-13T19:08:22;2.67;;;1.10;;
22814;SDS011;11574;51.058;13.712;2023-03-13T19:13:24;5.70;;;1.40;;
22814;SDS011;11574;51.058;13.712;2023-03-13T19:18:26;4.60;;;1.57;;
22814;SDS011;11574;51.058;13.712;2023-03-13T19:23:30;4.07;;;1.43;;
22814;SDS011;11574;51.058;13.712;2023-03-13T19:28:32;3.13;;;1.70;;
22814;SDS011;11574;51.058;13.712;2023-03-13T19:33:34;4.17;;;2.00;;
22814;SDS011;11574;51.058;13.712;2023-03-13T19:38:37;5.87;;;2.13;;
22814;SDS011;11574;51.058;13.712;2023-03-13T19:43:40;4.77;;;1.90;;
22814;SDS011;11574;51.058;13.712;2023-03-13T19:48:42;4.07;;;1.70;;
22814;SDS011;11574;51.058;13.712;2023-03-13T19:53:46;6.20;;;2.13;;
22814;SDS011;11574;51.058;13.712;2023-03-13T19:58:48;2.00;;;1.10;;
22814;SDS011;11574;51.058;13.712;2023-03-13T20:03:51;4.87;;;1.70;;
22814;SDS011;11574;51.058;13.712;2023-03-13T20:08:55;3.00;;;1.60;;
22814;SDS011;11574;51.058;13.712;2023-03-13T20:13:58;6.27;;;1.13;;
22814;SDS011;11574;51.058;13.712;2023-03-13T20:19:00;2.97;;;1.50;;
22814;SDS011;11574;51.058;13.712;2023-03-13T20:24:05;3.30;;;1.20;;
22814;SDS011;11574;51.058;13.712;2023-03-13T20:29:07;1.00;;;0.80;;
22814;SDS011;11574;51.058;13.712;2023-03-13T20:34:09;0.80;;;0.67;;
22814;SDS011;11574;51.058;13.712;2023-03-13T20:39:13;2.37;;;0.90;;
22814;SDS011;11574;51.058;13.712;2023-03-13T20:44:15;0.77;;;0.60;;
22814;SDS011;11574;51.058;13.712;2023-03-13T20:49:17;1.03;;;0.63;;
22814;SDS011;11574;51.058;13.712;2023-03-13T20:54:21;0.67;;;0.40;;
22814;SDS011;11574;51.058;13.712;2023-03-13T20:59:23;1.40;;;0.67;;
22814;SDS011;11574;51.058;13.712;2023-03-13T21:04:25;1.87;;;1.23;;
22814;SDS011;11574;51.058;13.712;2023-03-13T21:09:29;5.07;;;1.93;;
22814;SDS011;11574;51.058;13.712;2023-03-13T21:14:32;2.30;;;1.20;;
22814;SDS011;11574;51.058;13.712;2023-03-13T21:19:35;3.07;;;1.80;;
22814;SDS011;11574;51.058;13.712;2023-03-13T21:24:39;1.10;;;0.60;;
22814;SDS011;11574;51.058;13.712;2023-03-13T21:29:41;2.47;;;0.80;;
22814;SDS011;11574;51.058;13.712;2023-03-13T21:34:46;1.13;;;0.90;;
22814;SDS011;11574;51.058;13.712;2023-03-13T21:39:50;2.40;;;0.80;;
22814;SDS011;11574;51.058;13.712;2023-03-13T21:44:52;5.50;;;0.90;;
22814;SDS011;11574;51.058;13.712;2023-03-13T21:49:54;2.33;;;0.70;;
22814;SDS011;11574;51.058;13.712;2023-03-13T21:54:58;1.20;;;0.80;;
22814;SDS011;11574;51.058;13.712;2023-03-13T22:00:00;2.00;;;0.90;;
22814;SDS011;11574;51.058;13.712;2023-03-13T22:05:07;1.63;;;0.90;;
22814;SDS011;11574;51.058;13.712;2023-03-13T22:10:11;2.73;;;1.10;;
22814;SDS011;11574;51.058;13.712;2023-03-13T22:15:13;3.47;;;1.67;;
22814;SDS011;11574;51.058;13.712;2023-03-13T22:20:15;2.57;;;1.50;;
22814;SDS011;11574;51.058;13.712;2023-03-13T22:25:19;1.23;;;0.90;;
22814;SDS011;11574;51.058;13.712;2023-03-13T22:30:21;1.00;;;0.70;;
22814;SDS011;11574;51.058;13.712;2023-03-13T22:35:23;3.80;;;1.67;;
22814;SDS011;11574;51.058;13.712;2023-03-13T22:40:27;1.40;;;1.10;;
22814;SDS011;11574;51.058;13.712;2023-03-13T22:45:29;3.40;;;1.20;;
22814;SDS011;11574;51.058;13.712;2023-03-13T22:50:33;3.00;;;1.70;;
22814;SDS011;11574;51.058;13.712;2023-03-13T22:55:36;3.27;;;1.17;;
22814;SDS011;11574;51.058;13.712;2023-03-13T23:00:39;1.30;;;1.00;;
22814;SDS011;11574;51.058;13.712;2023-03-13T23:05:41;1.10;;;0.70;;
22814;SDS011;11574;51.058;13.712;2023-03-13T23:10:45;1.50;;;0.60;;
22814;SDS011;11574;51.058;13.712;2023-03-13T23:15:48;1.83;;;1.13;;
22814;SDS011;11574;51.058;13.712;2023-03-13T23:20:50;2.40;;;1.10;;
22814;SDS011;11574;51.058;13.712;2023-03-13T23:25:53;1.63;;;1.00;;
22814;SDS011;11574;51.058;13.712;2023-03-13T23:30:57;4.10;;;1.00;;
22814;SDS011;11574;51.058;13.712;2023-03-13T23:36:03;1.30;;;0.80;;
22814;SDS011;11574;51.058;13.712;2023-03-13T23:41:07;3.63;;;1.00;;
22814;SDS011;11574;51.058;13.712;2023-03-13T23:46:13;1.37;;;1.00;;
22814;SDS011;11574;51.058;13.712;2023-03-13T23:51:16;1.93;;;1.10;;
22814;SDS011;11574;51.058;13.712;2023-03-13T23:56:20;2.00;;;1.17;;
